sensor_id;sensor_type;location;lat;lon;timestamp;pressure;altitude;pressure_sealevel;temperature;humidity
65756;BME280;69208;47.502;18.940;2023-11-21T00:00:20;97704.19;;;5.34;100.00
65756;BME280;69208;47.502;18.940;2023-11-21T00:01:23;97698.47;;;5.37;100.00
65756;BME280;69208;47.502;18.940;2023-11-21T00:02:26;97698.47;;;5.37;100.00
65756;BME280;69208;47.502;18.940;2023-11-21T00:03:32;97700.00;;;5.38;100.00
65756;BME280;69208;47.502;18.940;2023-11-21T00:04:36;97706.00;;;5.38;100.00
65756;BME280;69208;47.502;18.940;2023-11-21T00:05:41;97698.22;;;5.33;100.00
65756;BME280;69208;47.502;18.940;2023-11-21T00:06:44;97702.16;;;5.25;100.00
65756;BME280;69208;47.502;18.940;2023-11-21T00:07:50;97701.41;;;5.20;100.00
65756;BME280;69208;47.502;18.940;2023-11-21T00:08:54;97695.47;;;5.14;100.00
65756;BME280;69208;47.502;18.940;2023-11-21T00:09:57;97692.63;;;5.11;100.00
65756;BME280;69208;47.502;18.940;2023-11-21T00:11:00;97709.56;;;5.03;100.00
65756;BME280;69208;47.502;18.940;2023-11-21T00:12:04;97704.38;;;4.98;100.00
65756;BME280;69208;47.502;18.940;2023-11-21T00:13:07;97698.16;;;4.94;100.00
65756;BME280;69208;47.502;18.940;2023-11-21T00:14:11;97704.38;;;4.98;100.00
65756;BME280;69208;47.502;18.940;2023-11-21T00:15:14;97699.19;;;4.93;100.00
65756;BME280;69208;47.502;18.940;2023-11-21T00:16:18;97710.41;;;4.83;100.00
65756;BME280;69208;47.502;18.940;2023-11-21T00:17:21;97706.00;;;4.78;100.00
65756;BME280;69208;47.502;18.940;2023-11-21T00:18:24;97702.84;;;4.87;100.00
65756;BME280;69208;47.502;18.940;2023-11-21T00:19:28;97702.62;;;4.78;100.00
65756;BME280;69208;47.502;18.940;2023-11-21T00:20:31;97691.75;;;4.71;100.00
65756;BME280;69208;47.502;18.940;2023-11-21T00:21:34;97699.56;;;4.66;100.00
65756;BME280;69208;47.502;18.940;2023-11-21T00:22:37;97695.66;;;4.63;100.00
65756;BME280;69208;47.502;18.940;2023-11-21T00:23:40;97698.03;;;4.60;100.00
65756;BME280;69208;47.502;18.940;2023-11-21T00:24:43;97699.56;;;4.61;100.00
65756;BME280;69208;47.502;18.940;2023-11-21T00:25:46;97699.31;;;4.62;100.00
65756;BME280;69208;47.502;18.940;2023-11-21T00:26:50;97695.41;;;4.65;100.00
65756;BME280;69208;47.502;18.940;2023-11-21T00:27:53;97691.53;;;4.62;100.00
65756;BME280;69208;47.502;18.940;2023-11-21T00:28:56;97689.44;;;4.64;100.00
65756;BME280;69208;47.502;18.940;2023-11-21T00:29:59;97693.59;;;4.65;100.00
65756;BME280;69208;47.502;18.940;2023-11-21T00:31:03;97698.28;;;4.58;100.00
65756;BME280;69208;47.502;18.940;2023-11-21T00:32:07;97700.09;;;4.57;100.00
65756;BME280;69208;47.502;18.940;2023-11-21T00:33:10;97703.22;;;4.54;100.00
65756;BME280;69208;47.502;18.940;2023-11-21T00:34:13;97707.09;;;4.52;100.00
65756;BME280;69208;47.502;18.940;2023-11-21T00:35:16;97707.09;;;4.52;100.00
65756;BME280;69208;47.502;18.940;2023-11-21T00:36:19;97702.69;;;4.52;100.00
65756;BME280;69208;47.502;18.940;2023-11-21T00:37:22;97707.87;;;4.52;100.00
65756;BME280;69208;47.502;18.940;2023-11-21T00:38:27;97708.41;;;4.54;100.00
65756;BME280;69208;47.502;18.940;2023-11-21T00:39:30;97707.63;;;4.59;100.00
65756;BME280;69208;47.502;18.940;2023-11-21T00:40:33;97711.75;;;4.60;100.00
65756;BME280;69208;47.502;18.940;2023-11-21T00:41:36;97716.19;;;4.60;100.00
65756;BME280;69208;47.502;18.940;2023-11-21T00:42:40;97723.44;;;4.57;100.00
65756;BME280;69208;47.502;18.940;2023-11-21T00:43:43;97721.91;;;4.56;100.00
65756;BME280;69208;47.502;18.940;2023-11-21T00:44:47;97726.56;;;4.54;100.00
65756;BME280;69208;47.502;18.940;2023-11-21T00:45:50;97726.03;;;4.63;100.00
65756;BME280;69208;47.502;18.940;2023-11-21T00:46:53;97730.66;;;4.76;100.00
65756;BME280;69208;47.502;18.940;2023-11-21T00:47:57;97734.28;;;4.75;100.00
65756;BME280;69208;47.502;18.940;2023-11-21T00:49:00;97734.81;;;4.72;100.00
65756;BME280;69208;47.502;18.940;2023-11-21T00:50:04;97727.56;;;4.74;100.00
65756;BME280;69208;47.502;18.940;2023-11-21T00:51:09;97738.72;;;4.79;100.00
65756;BME280;69208;47.502;18.940;2023-11-21T00:52:13;97745.91;;;4.98;100.00
65756;BME280;69208;47.502;18.940;2023-11-21T00:53:16;97737.84;;;5.05;100.00
65756;BME280;69208;47.502;18.940;2023-11-21T00:54:19;97737.28;;;5.13;100.00
65756;BME280;69208;47.502;18.940;2023-11-21T00:55:23;97737.28;;;5.18;100.00
65756;BME280;69208;47.502;18.940;2023-11-21T00:56:26;97739.06;;;5.22;100.00
65756;BME280;69208;47.502;18.940;2023-11-21T00:57:29;97735.38;;;5.29;100.00
65756;BME280;69208;47.502;18.940;2023-11-21T00:58:32;97732.78;;;5.34;100.00
65756;BME280;69208;47.502;18.940;2023-11-21T00:59:35;97734.63;;;5.28;100.00
65756;BME280;69208;47.502;18.940;2023-11-21T01:00:38;97732.00;;;5.33;100.00
65756;BME280;69208;47.502;18.940;2023-11-21T01:01:44;97717.69;;;5.36;100.00
65756;BME280;69208;47.502;18.940;2023-11-21T01:02:47;97719.25;;;5.32;100.00
65756;BME280;69208;47.502;18.940;2023-11-21T01:03:51;97718.50;;;5.31;100.00
65756;BME280;69208;47.502;18.940;2023-11-21T01:04:55;97715.66;;;5.28;100.00
65756;BME280;69208;47.502;18.940;2023-11-21T01:05:58;97716.72;;;5.21;100.00
65756;BME280;69208;47.502;18.940;2023-11-21T01:07:01;97710.47;;;5.28;100.00
65756;BME280;69208;47.502;18.940;2023-11-21T01:08:04;97709.69;;;5.27;100.00
65756;BME280;69208;47.502;18.940;2023-11-21T01:09:08;97707.91;;;5.17;100.00
65756;BME280;69208;47.502;18.940;2023-11-21T01:10:11;97706.91;;;5.08;100.00
65756;BME280;69208;47.502;18.940;2023-11-21T01:11:14;97709.56;;;4.98;100.00
65756;BME280;69208;47.502;18.940;2023-11-21T01:12:17;97711.12;;;4.94;100.00
65756;BME280;69208;47.502;18.940;2023-11-21T01:13:21;97707.25;;;4.91;100.00
65756;BME280;69208;47.502;18.940;2023-11-21T01:14:24;97711.94;;;4.89;100.00
65756;BME280;69208;47.502;18.940;2023-11-21T01:15:29;97714.03;;;4.82;100.00
65756;BME280;69208;47.502;18.940;2023-11-21T01:16:33;97717.44;;;4.77;100.00
65756;BME280;69208;47.502;18.940;2023-11-21T01:17:36;97712.53;;;4.71;100.00
65756;BME280;69208;47.502;18.940;2023-11-21T01:18:43;97710.72;;;4.66;100.00
65756;BME280;69208;47.502;18.940;2023-11-21T01:19:46;97707.59;;;4.64;100.00
65756;BME280;69208;47.502;18.940;2023-11-21T01:20:49;97713.84;;;4.58;100.00
65756;BME280;69208;47.502;18.940;2023-11-21T01:21:52;97706.84;;;4.59;100.00
65756;BME280;69208;47.502;18.940;2023-11-21T01:22:56;97701.16;;;4.56;100.00
65756;BME280;69208;47.502;18.940;2023-11-21T01:23:58;97703.22;;;4.49;100.00
65756;BME280;69208;47.502;18.940;2023-11-21T01:25:01;97699.59;;;4.45;100.00
65756;BME280;69208;47.502;18.940;2023-11-21T01:26:07;97699.59;;;4.45;100.00
65756;BME280;69208;47.502;18.940;2023-11-21T01:27:12;97698.03;;;4.49;100.00
65756;BME280;69208;47.502;18.940;2023-11-21T01:28:15;97698.56;;;4.51;100.00
65756;BME280;69208;47.502;18.940;2023-11-21T01:29:19;97700.13;;;4.47;100.00
65756;BME280;69208;47.502;18.940;2023-11-21T01:30:22;97694.94;;;4.42;100.00
65756;BME280;69208;47.502;18.940;2023-11-21T01:31:25;97686.63;;;4.40;100.00
65756;BME280;69208;47.502;18.940;2023-11-21T01:32:31;97702.47;;;4.39;100.00
65756;BME280;69208;47.502;18.940;2023-11-21T01:33:35;97695.72;;;4.38;100.00
65756;BME280;69208;47.502;18.940;2023-11-21T01:34:38;97692.59;;;4.41;100.00
65756;BME280;69208;47.502;18.940;2023-11-21T01:35:42;97699.13;;;4.38;100.00
65756;BME280;69208;47.502;18.940;2023-11-21T01:36:46;97696.53;;;4.38;100.00
65756;BME280;69208;47.502;18.940;2023-11-21T01:37:50;97697.81;;;4.30;100.00
65756;BME280;69208;47.502;18.940;2023-11-21T01:38:53;97693.41;;;4.26;100.00
65756;BME280;69208;47.502;18.940;2023-11-21T01:39:58;97689.78;;;4.27;100.00
65756;BME280;69208;47.502;18.940;2023-11-21T01:41:02;97693.94;;;4.28;100.00
65756;BME280;69208;47.502;18.940;2023-11-21T01:42:05;97685.63;;;4.26;100.00
65756;BME280;69208;47.502;18.940;2023-11-21T01:43:08;97691.34;;;4.23;100.00
65756;BME280;69208;47.502;18.940;2023-11-21T01:44:11;97696.53;;;4.23;100.00
65756;BME280;69208;47.502;18.940;2023-11-21T01:45:16;97685.66;;;4.21;100.00
65756;BME280;69208;47.502;18.940;2023-11-21T01:46:22;97687.44;;;4.25;100.00
65756;BME280;69208;47.502;18.940;2023-11-21T01:47:26;97685.13;;;4.24;100.00
65756;BME280;69208;47.502;18.940;2023-11-21T01:48:30;97689.28;;;4.25;100.00
65756;BME280;69208;47.502;18.940;2023-11-21T01:49:33;97689.28;;;4.25;100.00
65756;BME280;69208;47.502;18.940;2023-11-21T01:50:37;97687.44;;;4.25;100.00
65756;BME280;69208;47.502;18.940;2023-11-21T01:51:42;97692.63;;;4.25;100.00
65756;BME280;69208;47.502;18.940;2023-11-21T01:52:46;97683.84;;;4.26;100.00
65756;BME280;69208;47.502;18.940;2023-11-21T01:53:51;97686.69;;;4.25;100.00
65756;BME280;69208;47.502;18.940;2023-11-21T01:54:54;97684.09;;;4.25;100.00
65756;BME280;69208;47.502;18.940;2023-11-21T01:55:57;97678.13;;;4.24;100.00
65756;BME280;69208;47.502;18.940;2023-11-21T01:57:00;97674.25;;;4.22;100.00
65756;BME280;69208;47.502;18.940;2023-11-21T01:58:06;97676.59;;;4.18;100.00
65756;BME280;69208;47.502;18.940;2023-11-21T01:59:10;97682.00;;;4.17;100.00
65756;BME280;69208;47.502;18.940;2023-11-21T02:00:15;97679.94;;;4.19;100.00
65756;BME280;69208;47.502;18.940;2023-11-21T02:01:18;97673.72;;;4.20;100.00
65756;BME280;69208;47.502;18.940;2023-11-21T02:02:22;97676.84;;;4.22;100.00
65756;BME280;69208;47.502;18.940;2023-11-21T02:03:25;97672.16;;;4.24;100.00
65756;BME280;69208;47.502;18.940;2023-11-21T02:04:29;97664.62;;;4.32;100.00
65756;BME280;69208;47.502;18.940;2023-11-21T02:05:32;97667.72;;;4.34;100.00
65756;BME280;69208;47.502;18.940;2023-11-21T02:06:35;97666.97;;;4.29;100.00
65756;BME280;69208;47.502;18.940;2023-11-21T02:07:39;97664.38;;;4.29;100.00
65756;BME280;69208;47.502;18.940;2023-11-21T02:08:43;97666.47;;;4.27;100.00
65756;BME280;69208;47.502;18.940;2023-11-21T02:09:47;97663.06;;;4.31;100.00
65756;BME280;69208;47.502;18.940;2023-11-21T02:10:51;97664.62;;;4.32;100.00
65756;BME280;69208;47.502;18.940;2023-11-21T02:11:54;97666.94;;;4.34;100.00
65756;BME280;69208;47.502;18.940;2023-11-21T02:13:00;97666.44;;;4.32;100.00
65756;BME280;69208;47.502;18.940;2023-11-21T02:14:06;97663.06;;;4.31;100.00
65756;BME280;69208;47.502;18.940;2023-11-21T02:15:13;97662.03;;;4.32;100.00
65756;BME280;69208;47.502;18.940;2023-11-21T02:16:29;97663.59;;;4.33;100.00
65756;BME280;69208;47.502;18.940;2023-11-21T02:17:34;97662.81;;;4.33;100.00
65756;BME280;69208;47.502;18.940;2023-11-21T02:18:37;97665.94;;;4.30;100.00
65756;BME280;69208;47.502;18.940;2023-11-21T02:19:41;97665.66;;;4.31;100.00
65756;BME280;69208;47.502;18.940;2023-11-21T02:20:44;97662.28;;;4.36;100.00
65756;BME280;69208;47.502;18.940;2023-11-21T02:21:52;97658.91;;;4.36;100.00
65756;BME280;69208;47.502;18.940;2023-11-21T02:22:56;97662.81;;;4.33;100.00
65756;BME280;69208;47.502;18.940;2023-11-21T02:24:04;97659.69;;;4.36;100.00
65756;BME280;69208;47.502;18.940;2023-11-21T02:25:08;97658.91;;;4.36;100.00
65756;BME280;69208;47.502;18.940;2023-11-21T02:26:12;97658.41;;;4.39;100.00
65756;BME280;69208;47.502;18.940;2023-11-21T02:27:16;97647.72;;;4.45;100.00
65756;BME280;69208;47.502;18.940;2023-11-21T02:28:24;97654.75;;;4.45;100.00
65756;BME280;69208;47.502;18.940;2023-11-21T02:29:29;97651.91;;;4.41;100.00
65756;BME280;69208;47.502;18.940;2023-11-21T02:30:32;97655.53;;;4.40;100.00
65756;BME280;69208;47.502;18.940;2023-11-21T02:31:35;97647.78;;;4.35;100.00
65756;BME280;69208;47.502;18.940;2023-11-21T02:32:38;97645.69;;;4.37;100.00
65756;BME280;69208;47.502;18.940;2023-11-21T02:33:51;97645.19;;;4.35;100.00
65756;BME280;69208;47.502;18.940;2023-11-21T02:34:55;97642.84;;;4.33;100.00
65756;BME280;69208;47.502;18.940;2023-11-21T02:35:58;97643.63;;;4.34;100.00
65756;BME280;69208;47.502;18.940;2023-11-21T02:37:02;97641.03;;;4.34;100.00
65756;BME280;69208;47.502;18.940;2023-11-21T02:38:05;97639.19;;;4.34;100.00
65756;BME280;69208;47.502;18.940;2023-11-21T02:39:09;97631.69;;;4.33;100.00
65756;BME280;69208;47.502;18.940;2023-11-21T02:40:14;97637.66;;;4.33;100.00
65756;BME280;69208;47.502;18.940;2023-11-21T02:41:20;97638.13;;;4.41;100.00
65756;BME280;69208;47.502;18.940;2023-11-21T02:42:23;97638.41;;;4.44;100.00
65756;BME280;69208;47.502;18.940;2023-11-21T02:43:27;97630.87;;;4.48;100.00
65756;BME280;69208;47.502;18.940;2023-11-21T02:44:31;97638.91;;;4.46;100.00
65756;BME280;69208;47.502;18.940;2023-11-21T02:45:33;97643.06;;;4.47;100.00
65756;BME280;69208;47.502;18.940;2023-11-21T02:46:37;97641.25;;;4.48;100.00
65756;BME280;69208;47.502;18.940;2023-11-21T02:47:43;97643.56;;;4.54;100.00
65756;BME280;69208;47.502;18.940;2023-11-21T02:48:46;97650.81;;;4.52;100.00
65756;BME280;69208;47.502;18.940;2023-11-21T02:49:50;97639.94;;;4.50;100.00
65756;BME280;69208;47.502;18.940;2023-11-21T02:50:55;97645.37;;;4.49;100.00
65756;BME280;69208;47.502;18.940;2023-11-21T02:51:58;97642.03;;;4.48;100.00
65756;BME280;69208;47.502;18.940;2023-11-21T02:53:01;97644.84;;;4.52;100.00
65756;BME280;69208;47.502;18.940;2023-11-21T02:54:05;97644.06;;;4.56;100.00
65756;BME280;69208;47.502;18.940;2023-11-21T02:55:11;97649.50;;;4.65;100.00
65756;BME280;69208;47.502;18.940;2023-11-21T02:56:14;97647.69;;;4.61;100.00
65756;BME280;69208;47.502;18.940;2023-11-21T02:57:17;97647.44;;;4.62;100.00
65756;BME280;69208;47.502;18.940;2023-11-21T02:58:21;97642.50;;;4.61;100.00
65756;BME280;69208;47.502;18.940;2023-11-21T02:59:24;97639.66;;;4.57;100.00
65756;BME280;69208;47.502;18.940;2023-11-21T03:00:28;97638.13;;;4.56;100.00
65756;BME280;69208;47.502;18.940;2023-11-21T03:01:31;97641.19;;;4.58;100.00
65756;BME280;69208;47.502;18.940;2023-11-21T03:02:34;97637.31;;;4.61;100.00
65756;BME280;69208;47.502;18.940;2023-11-21T03:03:43;97639.66;;;4.57;100.00
65756;BME280;69208;47.502;18.940;2023-11-21T03:04:46;97634.47;;;4.57;100.00
65756;BME280;69208;47.502;18.940;2023-11-21T03:05:52;97629.75;;;4.64;100.00
65756;BME280;69208;47.502;18.940;2023-11-21T03:06:55;97633.94;;;4.60;100.00
65756;BME280;69208;47.502;18.940;2023-11-21T03:07:58;97624.09;;;4.62;100.00
65756;BME280;69208;47.502;18.940;2023-11-21T03:09:00;97617.09;;;4.57;100.00
65756;BME280;69208;47.502;18.940;2023-11-21T03:10:04;97617.59;;;4.65;100.00
65756;BME280;69208;47.502;18.940;2023-11-21T03:11:07;97621.19;;;4.74;100.00
65756;BME280;69208;47.502;18.940;2023-11-21T03:12:11;97614.69;;;4.76;100.00
65756;BME280;69208;47.502;18.940;2023-11-21T03:13:17;97617.22;;;4.82;100.00
65756;BME280;69208;47.502;18.940;2023-11-21T03:14:20;97610.50;;;4.81;100.00
65756;BME280;69208;47.502;18.940;2023-11-21T03:15:23;97605.59;;;4.74;100.00
65756;BME280;69208;47.502;18.940;2023-11-21T03:16:26;97614.69;;;4.71;100.00
65756;BME280;69208;47.502;18.940;2023-11-21T03:17:29;97611.03;;;4.77;100.00
65756;BME280;69208;47.502;18.940;2023-11-21T03:18:32;97611.28;;;4.76;100.00
65756;BME280;69208;47.502;18.940;2023-11-21T03:19:35;97611.28;;;4.76;100.00
65756;BME280;69208;47.502;18.940;2023-11-21T03:20:38;97612.84;;;4.77;100.00
65756;BME280;69208;47.502;18.940;2023-11-21T03:21:41;97602.72;;;4.75;100.00
65756;BME280;69208;47.502;18.940;2023-11-21T03:22:44;97607.66;;;4.77;100.00
65756;BME280;69208;47.502;18.940;2023-11-21T03:23:48;97608.97;;;4.74;100.00
65756;BME280;69208;47.502;18.940;2023-11-21T03:24:51;97605.06;;;4.77;100.00
65756;BME280;69208;47.502;18.940;2023-11-21T03:25:54;97603.25;;;4.77;100.00
65756;BME280;69208;47.502;18.940;2023-11-21T03:26:57;97607.37;;;4.78;100.00
65756;BME280;69208;47.502;18.940;2023-11-21T03:28:01;97595.97;;;4.79;100.00
65756;BME280;69208;47.502;18.940;2023-11-21T03:29:04;97600.87;;;4.81;100.00
65756;BME280;69208;47.502;18.940;2023-11-21T03:30:09;97599.06;;;4.82;100.00
65756;BME280;69208;47.502;18.940;2023-11-21T03:31:13;97594.69;;;4.77;100.00
65756;BME280;69208;47.502;18.940;2023-11-21T03:32:16;97599.13;;;4.76;100.00
65756;BME280;69208;47.502;18.940;2023-11-21T03:33:20;97600.66;;;4.77;100.00
65756;BME280;69208;47.502;18.940;2023-11-21T03:34:25;97595.97;;;4.79;100.00
65756;BME280;69208;47.502;18.940;2023-11-21T03:35:31;97590.78;;;4.79;100.00
65756;BME280;69208;47.502;18.940;2023-11-21T03:36:35;97586.59;;;4.84;100.00
65756;BME280;69208;47.502;18.940;2023-11-21T03:37:39;97582.19;;;4.84;100.00
65756;BME280;69208;47.502;18.940;2023-11-21T03:38:45;97581.12;;;4.90;100.00
65756;BME280;69208;47.502;18.940;2023-11-21T03:39:48;97582.91;;;4.95;100.00
65756;BME280;69208;47.502;18.940;2023-11-21T03:40:51;97578.50;;;4.95;100.00
65756;BME280;69208;47.502;18.940;2023-11-21T03:41:54;97577.50;;;4.91;100.00
65756;BME280;69208;47.502;18.940;2023-11-21T03:42:58;97573.59;;;4.89;100.00
65756;BME280;69208;47.502;18.940;2023-11-21T03:44:01;97568.38;;;4.94;100.00
65756;BME280;69208;47.502;18.940;2023-11-21T03:45:05;97570.19;;;4.93;100.00
65756;BME280;69208;47.502;18.940;2023-11-21T03:46:09;97562.91;;;4.95;100.00
65756;BME280;69208;47.502;18.940;2023-11-21T03:47:12;97570.19;;;4.93;100.00
65756;BME280;69208;47.502;18.940;2023-11-21T03:48:16;97565.53;;;4.90;100.00
65756;BME280;69208;47.502;18.940;2023-11-21T03:49:19;97569.19;;;4.89;100.00
65756;BME280;69208;47.502;18.940;2023-11-21T03:50:22;97570.25;;;4.88;100.00
65756;BME280;69208;47.502;18.940;2023-11-21T03:51:25;97569.19;;;4.89;100.00
65756;BME280;69208;47.502;18.940;2023-11-21T03:52:28;97576.13;;;4.99;100.00
65756;BME280;69208;47.502;18.940;2023-11-21T03:53:31;97582.88;;;5.00;100.00
65756;BME280;69208;47.502;18.940;2023-11-21T03:54:34;97587.28;;;4.99;100.00
65756;BME280;69208;47.502;18.940;2023-11-21T03:55:38;97586.25;;;5.00;100.00
65756;BME280;69208;47.502;18.940;2023-11-21T03:56:41;97589.62;;;5.01;100.00
65756;BME280;69208;47.502;18.940;2023-11-21T03:57:44;97587.28;;;4.99;100.00
65756;BME280;69208;47.502;18.940;2023-11-21T03:58:48;97591.69;;;4.99;100.00
65756;BME280;69208;47.502;18.940;2023-11-21T03:59:51;97593.84;;;4.92;100.00
65756;BME280;69208;47.502;18.940;2023-11-21T04:00:55;97595.66;;;4.91;100.00
65756;BME280;69208;47.502;18.940;2023-11-21T04:01:58;97599.28;;;4.90;100.00
65756;BME280;69208;47.502;18.940;2023-11-21T04:03:01;97596.69;;;4.90;100.00
65756;BME280;69208;47.502;18.940;2023-11-21T04:04:04;97596.19;;;4.88;100.00
65756;BME280;69208;47.502;18.940;2023-11-21T04:05:07;97589.66;;;4.91;100.00
65756;BME280;69208;47.502;18.940;2023-11-21T04:06:12;97592.25;;;4.96;100.00
65756;BME280;69208;47.502;18.940;2023-11-21T04:07:14;97587.34;;;4.94;100.00
65756;BME280;69208;47.502;18.940;2023-11-21T04:08:18;97586.53;;;4.94;100.00
65756;BME280;69208;47.502;18.940;2023-11-21T04:09:21;97594.84;;;4.91;100.00
65756;BME280;69208;47.502;18.940;2023-11-21T04:10:28;97597.97;;;4.93;100.00
65756;BME280;69208;47.502;18.940;2023-11-21T04:11:31;97604.69;;;4.94;100.00
65756;BME280;69208;47.502;18.940;2023-11-21T04:12:35;97609.63;;;4.95;100.00
65756;BME280;69208;47.502;18.940;2023-11-21T04:13:40;97611.47;;;4.95;100.00
65756;BME280;69208;47.502;18.940;2023-11-21T04:14:43;97614.84;;;4.95;100.00
65756;BME280;69208;47.502;18.940;2023-11-21T04:15:46;97620.03;;;4.95;100.00
65756;BME280;69208;47.502;18.940;2023-11-21T04:16:49;97624.69;;;4.98;100.00
65756;BME280;69208;47.502;18.940;2023-11-21T04:17:52;97626.22;;;4.99;100.00
65756;BME280;69208;47.502;18.940;2023-11-21T04:18:55;97628.59;;;4.96;100.00
65756;BME280;69208;47.502;18.940;2023-11-21T04:19:59;97628.88;;;4.94;100.00
65756;BME280;69208;47.502;18.940;2023-11-21T04:21:04;97639.50;;;4.93;100.00
65756;BME280;69208;47.502;18.940;2023-11-21T04:22:08;97627.28;;;4.98;100.00
65756;BME280;69208;47.502;18.940;2023-11-21T04:23:11;97634.53;;;5.01;100.00
65756;BME280;69208;47.502;18.940;2023-11-21T04:24:16;97630.34;;;5.06;100.00
65756;BME280;69208;47.502;18.940;2023-11-21T04:25:19;97627.25;;;5.04;100.00
65756;BME280;69208;47.502;18.940;2023-11-21T04:26:22;97632.22;;;5.00;100.00
65756;BME280;69208;47.502;18.940;2023-11-21T04:27:25;97627.75;;;5.06;100.00
65756;BME280;69208;47.502;18.940;2023-11-21T04:28:28;97618.16;;;5.06;100.00
65756;BME280;69208;47.502;18.940;2023-11-21T04:29:32;97622.00;;;5.09;100.00
65756;BME280;69208;47.502;18.940;2023-11-21T04:30:35;97619.94;;;5.06;100.00
65756;BME280;69208;47.502;18.940;2023-11-21T04:31:38;97619.41;;;5.09;100.00
65756;BME280;69208;47.502;18.940;2023-11-21T04:32:41;97618.41;;;5.05;100.00
65756;BME280;69208;47.502;18.940;2023-11-21T04:33:47;97620.78;;;5.01;100.00
65756;BME280;69208;47.502;18.940;2023-11-21T04:34:50;97627.03;;;5.00;100.00
65756;BME280;69208;47.502;18.940;2023-11-21T04:35:54;97624.91;;;5.02;100.00
65756;BME280;69208;47.502;18.940;2023-11-21T04:36:57;97630.37;;;5.00;100.00
65756;BME280;69208;47.502;18.940;2023-11-21T04:38:00;97624.16;;;4.96;100.00
65756;BME280;69208;47.502;18.940;2023-11-21T04:39:03;97630.41;;;4.95;100.00
65756;BME280;69208;47.502;18.940;2023-11-21T04:40:07;97631.72;;;4.93;100.00
65756;BME280;69208;47.502;18.940;2023-11-21T04:41:11;97634.06;;;4.94;100.00
65756;BME280;69208;47.502;18.940;2023-11-21T04:42:14;97628.59;;;4.96;100.00
65756;BME280;69208;47.502;18.940;2023-11-21T04:43:17;97632.47;;;4.93;100.00
65756;BME280;69208;47.502;18.940;2023-11-21T04:44:21;97633.25;;;4.94;100.00
65756;BME280;69208;47.502;18.940;2023-11-21T04:45:24;97634.31;;;4.93;100.00
65756;BME280;69208;47.502;18.940;2023-11-21T04:46:27;97641.03;;;4.94;100.00
65756;BME280;69208;47.502;18.940;2023-11-21T04:47:30;97641.31;;;4.92;100.00
65756;BME280;69208;47.502;18.940;2023-11-21T04:48:34;97646.22;;;4.99;100.00
65756;BME280;69208;47.502;18.940;2023-11-21T04:49:36;97646.97;;;4.99;100.00
65756;BME280;69208;47.502;18.940;2023-11-21T04:50:40;97647.28;;;4.98;100.00
65756;BME280;69208;47.502;18.940;2023-11-21T04:51:43;97655.28;;;5.07;100.00
65756;BME280;69208;47.502;18.940;2023-11-21T04:52:46;97651.63;;;5.02;100.00
65756;BME280;69208;47.502;18.940;2023-11-21T04:53:49;97650.91;;;4.97;100.00
65756;BME280;69208;47.502;18.940;2023-11-21T04:54:52;97649.88;;;4.98;100.00
65756;BME280;69208;47.502;18.940;2023-11-21T04:55:57;97648.81;;;4.99;100.00
65756;BME280;69208;47.502;18.940;2023-11-21T04:57:00;97649.88;;;4.98;100.00
65756;BME280;69208;47.502;18.940;2023-11-21T04:58:03;97656.34;;;5.00;100.00
65756;BME280;69208;47.502;18.940;2023-11-21T04:59:07;97654.78;;;4.99;100.00
65756;BME280;69208;47.502;18.940;2023-11-21T05:00:11;97653.47;;;5.02;100.00
65756;BME280;69208;47.502;18.940;2023-11-21T05:01:16;97656.59;;;5.04;100.00
65756;BME280;69208;47.502;18.940;2023-11-21T05:02:19;97656.81;;;5.08;100.00
65756;BME280;69208;47.502;18.940;2023-11-21T05:03:36;97662.53;;;5.10;100.00
65756;BME280;69208;47.502;18.940;2023-11-21T05:04:42;97658.84;;;5.16;100.00
65756;BME280;69208;47.502;18.940;2023-11-21T05:05:45;97660.94;;;5.14;100.00
65756;BME280;69208;47.502;18.940;2023-11-21T05:06:49;97660.69;;;5.15;100.00
65756;BME280;69208;47.502;18.940;2023-11-21T05:07:52;97664.81;;;5.16;100.00
65756;BME280;69208;47.502;18.940;2023-11-21T05:08:56;97663.00;;;5.17;100.00
65756;BME280;69208;47.502;18.940;2023-11-21T05:09:59;97654.94;;;5.23;100.00
65756;BME280;69208;47.502;18.940;2023-11-21T05:11:03;97654.13;;;5.23;100.00
65756;BME280;69208;47.502;18.940;2023-11-21T05:12:06;97655.94;;;5.22;100.00
65756;BME280;69208;47.502;18.940;2023-11-21T05:13:09;97656.19;;;5.26;100.00
65756;BME280;69208;47.502;18.940;2023-11-21T05:14:13;97661.91;;;5.28;100.00
65756;BME280;69208;47.502;18.940;2023-11-21T05:15:17;97655.38;;;5.31;100.00
65756;BME280;69208;47.502;18.940;2023-11-21T05:16:20;97655.38;;;5.31;100.00
65756;BME280;69208;47.502;18.940;2023-11-21T05:17:24;97655.84;;;5.38;100.00
65756;BME280;69208;47.502;18.940;2023-11-21T05:18:28;97655.31;;;5.41;100.00
65756;BME280;69208;47.502;18.940;2023-11-21T05:19:33;97650.91;;;5.41;100.00
65756;BME280;69208;47.502;18.940;2023-11-21T05:20:38;97650.41;;;5.39;100.00
65756;BME280;69208;47.502;18.940;2023-11-21T05:21:41;97646.25;;;5.38;100.00
65756;BME280;69208;47.502;18.940;2023-11-21T05:22:44;97649.62;;;5.39;100.00
65756;BME280;69208;47.502;18.940;2023-11-21T05:23:47;97640.78;;;5.40;100.00
65756;BME280;69208;47.502;18.940;2023-11-21T05:24:51;97642.09;;;5.37;100.00
65756;BME280;69208;47.502;18.940;2023-11-21T05:25:54;97644.44;;;5.39;100.00
65756;BME280;69208;47.502;18.940;2023-11-21T05:26:59;97642.06;;;5.42;100.00
65756;BME280;69208;47.502;18.940;2023-11-21T05:28:02;97652.47;;;5.42;100.00
65756;BME280;69208;47.502;18.940;2023-11-21T05:29:06;97648.84;;;5.38;100.00
65756;BME280;69208;47.502;18.940;2023-11-21T05:30:09;97651.94;;;5.40;100.00
65756;BME280;69208;47.502;18.940;2023-11-21T05:31:15;97651.69;;;5.42;100.00
65756;BME280;69208;47.502;18.940;2023-11-21T05:32:18;97653.00;;;5.39;100.00
65756;BME280;69208;47.502;18.940;2023-11-21T05:33:21;97661.03;;;5.43;100.00